Weippe, Idaho
Current Conditions -  °F | °C
As of 4:35 AM on Monday 24 Nov 2014 (Local Time) from KGIC Reporting Station
Clear Clear  
Wind Chill: 27°   Ceiling: Unl
Heat Index: 34°   Visibility: 10mi
Dew Point: 25°   Wind: 9mph
Humidity: 71%   Direction: 220°SW
Pressure: 30.32"   Gusts: NA
Location:  46.38°N, 115.94°W
Report Text: KGIC 241235Z AUTO 22008KT 10SM CLR 01/M04 A3032 RMK AO1 T00111037
Loading
Personal Weather Stations






























Interactive Weather Map New forecast layout! Learn more

10-Day Weather Forecast

Advertisements
Track Severe Weather on mobile